createdAt,value
2018-08-19T00:00:44.941Z,66.70
2018-08-19T00:03:14.180Z,66.27
2018-08-19T00:05:43.057Z,67.07
2018-08-19T00:08:11.589Z,66.53
2018-08-19T00:11:12.876Z,66.45
2018-08-19T00:13:41.597Z,66.57
2018-08-19T00:16:11.739Z,66.71
2018-08-19T00:18:40.901Z,67.28
2018-08-19T00:21:11.880Z,67.44
2018-08-19T00:23:45.540Z,66.79
2018-08-19T00:26:15.161Z,66.88
2018-08-19T00:28:43.651Z,67.07
2018-08-19T00:31:12.239Z,67.10
2018-08-19T00:33:41.075Z,67.48
2018-08-19T00:36:25.605Z,67.11
2018-08-19T00:38:54.753Z,67.15
2018-08-19T00:41:24.258Z,67.07
2018-08-19T00:43:52.800Z,67.36
2018-08-19T00:46:27.039Z,67.76
2018-08-19T00:48:55.898Z,67.96
2018-08-19T00:51:24.765Z,67.75
2018-08-19T00:53:53.303Z,67.90
2018-08-19T00:56:22.796Z,68.65
2018-08-19T00:58:51.243Z,67.75
2018-08-19T01:01:31.105Z,67.70
2018-08-19T01:03:59.953Z,68.18
2018-08-19T01:06:28.833Z,68.52
2018-08-19T01:08:57.505Z,67.66
2018-08-19T01:11:32.393Z,68.46
2018-08-19T01:14:01.004Z,67.90
2018-08-19T01:16:29.643Z,68.69
2018-08-19T01:19:02.213Z,68.24
2018-08-19T01:21:32.639Z,68.82
2018-08-19T01:24:02.261Z,68.98
2018-08-19T01:26:35.337Z,68.37
2018-08-19T01:29:04.325Z,68.21
2018-08-19T01:31:33.041Z,69.29
2018-08-19T01:34:01.868Z,69.40
2018-08-19T01:36:31.005Z,69.43
2018-08-19T01:38:59.818Z,68.96
2018-08-19T01:41:28.620Z,69.13
2018-08-19T01:44:03.337Z,69.17
2018-08-19T01:46:38.217Z,69.36
2018-08-19T01:49:09.307Z,69.16
2018-08-19T01:51:39.423Z,69.39
2018-08-19T01:54:13.176Z,69.76
2018-08-19T01:56:42.367Z,69.43
2018-08-19T01:59:11.249Z,69.84
2018-08-19T02:01:50.125Z,70.17
2018-08-19T02:04:19.272Z,70.15
2018-08-19T02:06:47.974Z,69.61
2018-08-19T02:09:17.580Z,69.87
2018-08-19T02:11:48.050Z,70.62
2018-08-19T02:14:17.607Z,70.06
2018-08-19T02:16:46.728Z,70.74
2018-08-19T02:19:15.361Z,70.80
2018-08-19T02:21:44.531Z,70.92
2018-08-19T02:24:13.763Z,70.14
2018-08-19T02:26:43.048Z,70.39
2018-08-19T02:29:28.392Z,70.59
2018-08-19T02:32:03.032Z,71.08
2018-08-19T02:34:32.975Z,70.17
2018-08-19T02:37:06.114Z,71.49
2018-08-19T02:39:36.889Z,70.70
2018-08-19T02:42:11.468Z,71.17
2018-08-19T02:44:40.111Z,71.33
2018-08-19T02:47:08.745Z,71.30
2018-08-19T02:49:37.541Z,71.38
2018-08-19T02:52:07.446Z,71.49
2018-08-19T02:54:36.538Z,72.29
2018-08-19T02:57:05.181Z,72.14
2018-08-19T02:59:33.780Z,71.26
2018-08-19T03:02:02.377Z,72.18
2018-08-19T03:04:31.527Z,72.54
2018-08-19T03:07:00.745Z,72.19
2018-08-19T03:09:29.288Z,71.48
2018-08-19T03:12:09.545Z,72.57
2018-08-19T03:14:38.085Z,72.75
2018-08-19T03:17:06.558Z,72.32
2018-08-19T03:19:35.188Z,72.30
2018-08-19T03:22:03.758Z,72.69
2018-08-19T03:24:32.464Z,72.82
2018-08-19T03:27:01.909Z,73.00
2018-08-19T03:29:31.140Z,73.26
2018-08-19T03:32:01.719Z,73.00
2018-08-19T03:34:32.031Z,73.17
2018-08-19T03:37:00.828Z,73.13
2018-08-19T03:39:29.266Z,73.01
2018-08-19T03:41:58.438Z,72.72
2018-08-19T03:44:26.880Z,72.74
2018-08-19T03:46:55.371Z,73.76
2018-08-19T03:49:24.832Z,73.14
2018-08-19T03:51:53.438Z,73.74
2018-08-19T03:54:21.940Z,73.22
2018-08-19T03:56:50.501Z,73.93
2018-08-19T03:59:19.237Z,73.59
2018-08-19T04:01:47.809Z,73.35
2018-08-19T04:04:17.508Z,73.85
2018-08-19T04:06:46.497Z,74.16
2018-08-19T04:09:15.060Z,73.92
2018-08-19T04:11:43.821Z,73.68
2018-08-19T04:14:25.852Z,73.04
2018-08-19T04:16:56.284Z,74.39
2018-08-19T04:19:26.273Z,73.71
2018-08-19T04:21:58.026Z,73.71
2018-08-19T04:24:27.126Z,74.60
2018-08-19T04:26:55.910Z,74.35
2018-08-19T04:29:25.182Z,74.81
2018-08-19T04:31:54.325Z,74.16
2018-08-19T04:34:22.953Z,74.05
2018-08-19T04:36:51.750Z,74.33
2018-08-19T04:39:20.979Z,74.02
2018-08-19T04:41:49.583Z,74.87
2018-08-19T04:44:18.370Z,74.33
2018-08-19T04:46:47.377Z,75.01
2018-08-19T04:49:16.366Z,75.38
2018-08-19T04:51:44.931Z,75.30
2018-08-19T04:54:13.620Z,74.78
2018-08-19T04:56:42.416Z,76.04
2018-08-19T04:59:11.297Z,74.98
2018-08-19T05:01:40.317Z,74.93
2018-08-19T05:04:09.376Z,75.68
2018-08-19T05:06:38.504Z,75.42
2018-08-19T05:09:08.560Z,75.50
2018-08-19T05:11:37.632Z,75.37
2018-08-19T05:14:06.376Z,74.78
2018-08-19T05:16:36.501Z,75.76
2018-08-19T05:24:51.437Z,75.43
2018-08-19T05:27:20.305Z,74.83
2018-08-19T05:29:49.267Z,75.90
2018-08-19T05:32:18.041Z,75.40
2018-08-19T05:34:46.792Z,75.30
2018-08-19T05:37:15.480Z,75.27
2018-08-19T05:39:51.176Z,74.99
2018-08-19T05:42:19.989Z,75.19
2018-08-19T05:44:48.710Z,75.21
2018-08-19T05:47:18.515Z,75.11
2018-08-19T05:49:48.320Z,75.35
2018-08-19T05:52:24.108Z,75.06
2018-08-19T05:54:55.507Z,74.28
2018-08-19T05:57:24.144Z,74.79
2018-08-19T05:59:57.143Z,74.64
2018-08-19T06:02:33.443Z,74.87
2018-08-19T06:05:03.788Z,74.60
2018-08-19T06:07:32.970Z,73.82
2018-08-19T06:10:01.975Z,74.54
2018-08-19T06:12:30.922Z,74.62
2018-08-19T06:15:01.416Z,74.83
2018-08-19T06:17:30.314Z,73.94
2018-08-19T06:19:59.798Z,74.42
2018-08-19T06:22:34.175Z,74.26
2018-08-19T06:25:03.097Z,74.02
2018-08-19T06:27:35.807Z,73.81
2018-08-19T06:30:04.923Z,74.50
2018-08-19T06:32:34.088Z,74.44
2018-08-19T06:35:02.931Z,74.62
2018-08-19T06:37:31.510Z,74.76
2018-08-19T06:40:00.423Z,73.87
2018-08-19T06:42:29.537Z,73.98
2018-08-19T06:44:58.250Z,73.89
2018-08-19T06:47:27.539Z,74.20
2018-08-19T06:49:58.228Z,73.80
2018-08-19T06:52:27.638Z,73.40
2018-08-19T06:55:03.117Z,73.18
2018-08-19T06:57:32.032Z,73.95
2018-08-19T07:00:00.749Z,73.33
2018-08-19T07:02:29.542Z,72.83
2018-08-19T07:04:58.510Z,72.78
2018-08-19T07:07:27.381Z,72.67
2018-08-19T07:09:56.661Z,72.77
2018-08-19T07:12:25.583Z,71.96
2018-08-19T07:14:54.523Z,72.31
2018-08-19T07:17:23.621Z,71.93
2018-08-19T07:19:52.240Z,71.88
2018-08-19T07:22:22.086Z,71.67
2018-08-19T07:24:50.914Z,71.43
2018-08-19T07:27:19.564Z,71.43
2018-08-19T07:29:48.631Z,71.68
2018-08-19T07:32:17.400Z,72.27
2018-08-19T07:34:46.166Z,70.78
2018-08-19T07:37:16.237Z,70.04
2018-08-19T07:39:50.683Z,70.15
2018-08-19T07:42:19.513Z,69.60
2018-08-19T07:44:48.425Z,70.23
2018-08-19T07:47:17.339Z,70.21
2018-08-19T07:49:46.456Z,68.68
2018-08-19T07:52:15.114Z,69.36
2018-08-19T07:54:44.019Z,69.04
2018-08-19T07:57:23.196Z,69.53
2018-08-19T07:59:51.992Z,69.07
2018-08-19T08:02:20.804Z,67.98
2018-08-19T08:04:49.627Z,67.34
2018-08-19T08:07:18.545Z,67.04
2018-08-19T08:09:47.176Z,67.49
2018-08-19T08:12:16.000Z,67.34
2018-08-19T08:14:53.531Z,67.51
2018-08-19T08:17:23.769Z,68.07
2018-08-19T08:20:01.255Z,67.47
2018-08-19T08:22:31.086Z,68.07
2018-08-19T08:25:00.268Z,67.69
2018-08-19T08:27:29.846Z,67.50
2018-08-19T08:29:59.064Z,67.26
2018-08-19T08:32:28.879Z,66.06
2018-08-19T08:34:57.952Z,66.51
2018-08-19T08:37:26.683Z,66.47
2018-08-19T08:39:59.693Z,65.35
2018-08-19T08:42:33.776Z,65.75
2018-08-19T08:45:02.771Z,65.26
2018-08-19T08:47:32.064Z,64.67
2018-08-19T08:50:00.722Z,64.66
2018-08-19T08:52:29.722Z,63.50
2018-08-19T08:55:01.030Z,62.96
2018-08-19T08:57:30.122Z,63.10
2018-08-19T08:59:58.857Z,63.60
2018-08-19T09:02:27.652Z,63.74
2018-08-19T09:04:56.657Z,62.96
2018-08-19T09:07:27.316Z,63.91
2018-08-19T09:09:56.178Z,63.96
2018-08-19T09:12:36.701Z,64.17
2018-08-19T09:15:06.164Z,62.77
2018-08-19T09:17:34.832Z,62.64
2018-08-19T09:20:03.748Z,62.56
2018-08-19T09:22:32.499Z,62.25
2018-08-19T09:25:01.249Z,61.41
2018-08-19T09:27:30.144Z,61.76
2018-08-19T09:29:59.046Z,61.59
2018-08-19T09:32:27.686Z,61.39
2018-08-19T09:34:56.444Z,60.95
2018-08-19T09:37:25.076Z,61.63
2018-08-19T09:39:53.723Z,61.95
2018-08-19T09:42:23.241Z,61.20
2018-08-19T09:44:51.955Z,60.70
2018-08-19T09:47:21.130Z,60.88
2018-08-19T09:49:50.451Z,61.29
2018-08-19T09:52:19.519Z,60.89
2018-08-19T09:54:48.930Z,60.26
2018-08-19T09:59:46.035Z,59.92
2018-08-19T10:02:15.350Z,59.63
2018-08-19T10:04:44.391Z,59.21
2018-08-19T10:07:14.122Z,58.49
2018-08-19T10:09:43.546Z,58.89
2018-08-19T10:12:13.744Z,58.74
2018-08-19T10:14:42.515Z,56.87
2018-08-19T10:17:11.509Z,57.59
2018-08-19T10:19:40.500Z,57.98
2018-08-19T10:22:09.215Z,57.96
2018-08-19T10:24:37.829Z,56.91
2018-08-19T10:27:08.500Z,57.38
2018-08-19T10:29:37.745Z,58.05
2018-08-19T10:32:06.762Z,55.80
2018-08-19T10:34:36.775Z,55.76
2018-08-19T10:37:06.156Z,55.86
2018-08-19T10:39:34.712Z,55.45
2018-08-19T10:42:19.670Z,56.05
2018-08-19T10:44:50.976Z,54.31
2018-08-19T10:47:21.116Z,54.30
2018-08-19T10:50:09.877Z,53.65
2018-08-19T10:52:42.105Z,53.21
2018-08-19T10:55:12.004Z,54.04
2018-08-19T10:57:40.734Z,53.93
2018-08-19T11:00:15.706Z,54.02
2018-08-19T11:02:45.184Z,53.74
2018-08-19T11:05:14.075Z,52.24
2018-08-19T11:07:42.899Z,53.67
2018-08-19T11:10:21.633Z,52.01
2018-08-19T11:12:53.112Z,52.62
2018-08-19T11:15:43.986Z,52.28
2018-08-19T11:18:24.668Z,52.51
2018-08-19T11:21:57.716Z,51.77
2018-08-19T11:24:28.578Z,51.58
2018-08-19T11:27:04.378Z,51.62
2018-08-19T11:29:37.766Z,50.50
2018-08-19T11:32:06.747Z,51.53
2018-08-19T11:34:35.682Z,51.55
2018-08-19T11:37:04.780Z,50.08
2018-08-19T11:39:38.631Z,50.74
2018-08-19T11:43:38.163Z,50.99
2018-08-19T11:46:07.547Z,51.15
2018-08-19T11:48:37.257Z,51.16
2018-08-19T11:51:11.371Z,50.83
2018-08-19T11:53:40.330Z,49.90
2018-08-19T11:56:09.192Z,49.71
2018-08-19T11:58:45.182Z,48.84
2018-08-19T12:01:16.105Z,48.39
2018-08-19T12:04:02.920Z,48.18
2018-08-19T12:06:32.705Z,48.76
2018-08-19T12:09:03.192Z,49.02
2018-08-19T12:11:35.984Z,48.09
2018-08-19T12:14:11.452Z,48.37
2018-08-19T12:16:48.917Z,48.64
2018-08-19T12:19:34.741Z,48.17
2018-08-19T12:22:04.799Z,48.13
2018-08-19T12:24:39.687Z,47.79
2018-08-19T12:27:10.159Z,48.38
2018-08-19T12:29:40.232Z,46.28
2018-08-19T12:32:13.703Z,47.03
2018-08-19T12:34:48.356Z,45.68
2018-08-19T12:37:18.290Z,45.24
2018-08-19T12:39:47.021Z,45.62
2018-08-19T12:42:15.956Z,44.41
2018-08-19T12:44:47.695Z,43.87
2018-08-19T12:47:18.240Z,44.64
2018-08-19T12:49:48.476Z,44.72
2018-08-19T12:52:19.347Z,42.55
2018-08-19T12:55:03.942Z,43.22
2018-08-19T12:57:32.877Z,41.25
2018-08-19T13:00:33.409Z,40.37
2018-08-19T13:03:02.644Z,37.50
2018-08-19T13:05:31.569Z,37.61
2018-08-19T13:08:00.732Z,37.18
2018-08-19T13:10:37.232Z,38.30
2018-08-19T13:13:06.871Z,37.89
2018-08-19T13:15:35.955Z,39.46
2018-08-19T13:18:06.086Z,40.02
2018-08-19T13:20:35.049Z,39.90
2018-08-19T13:23:04.731Z,40.76
2018-08-19T13:25:34.029Z,40.18
2018-08-19T13:28:03.166Z,40.47
2018-08-19T13:30:31.884Z,41.00
2018-08-19T13:33:01.114Z,40.68
2018-08-19T13:35:29.993Z,40.83
2018-08-19T13:37:59.218Z,41.19
2018-08-19T13:40:28.072Z,41.43
2018-08-19T13:42:56.741Z,41.61
2018-08-19T13:45:27.532Z,41.75
2018-08-19T13:47:56.104Z,42.57
2018-08-19T13:50:24.875Z,42.02
2018-08-19T13:52:53.662Z,40.75
2018-08-19T13:55:22.692Z,41.94
2018-08-19T13:57:51.555Z,42.38
2018-08-19T14:00:23.069Z,42.92
2018-08-19T14:02:52.356Z,41.30
2018-08-19T14:05:21.599Z,41.83
2018-08-19T14:07:50.492Z,42.25
2018-08-19T14:10:19.084Z,41.12
2018-08-19T14:12:48.101Z,41.27
2018-08-19T14:15:16.985Z,41.72
2018-08-19T14:17:45.895Z,42.15
2018-08-19T14:20:14.891Z,42.09
2018-08-19T14:22:43.884Z,42.16
2018-08-19T14:25:12.962Z,40.61
2018-08-19T14:27:41.740Z,41.01
2018-08-19T14:30:14.643Z,41.45
2018-08-19T14:32:45.360Z,41.49
2018-08-19T14:35:14.341Z,42.18
2018-08-19T14:37:43.111Z,41.08
2018-08-19T14:40:15.541Z,42.40
2018-08-19T14:42:44.037Z,42.08
2018-08-19T14:45:13.002Z,41.14
2018-08-19T14:47:41.824Z,42.10
2018-08-19T14:50:15.361Z,41.13
2018-08-19T14:52:44.034Z,41.45
2018-08-19T14:55:12.791Z,40.56
2018-08-19T14:57:41.414Z,40.36
2018-08-19T15:00:13.863Z,39.88
2018-08-19T15:02:42.924Z,40.47
2018-08-19T15:05:18.386Z,41.04
2018-08-19T15:07:47.634Z,41.17
2018-08-19T15:10:17.885Z,41.01
2018-08-19T15:12:46.653Z,41.48
2018-08-19T15:15:15.469Z,41.16
2018-08-19T15:17:49.927Z,41.88
2018-08-19T15:20:25.612Z,41.57
2018-08-19T15:25:44.089Z,42.63
2018-08-19T15:28:13.323Z,42.56
2018-08-19T15:30:42.884Z,41.74
2018-08-19T15:33:12.884Z,42.97
2018-08-19T15:35:42.207Z,43.46
2018-08-19T15:38:11.435Z,43.06
2018-08-19T15:40:42.442Z,42.34
2018-08-19T15:43:12.281Z,43.03
2018-08-19T15:45:41.553Z,42.42
2018-08-19T15:48:10.425Z,42.59
2018-08-19T15:50:39.505Z,43.10
2018-08-19T15:53:09.525Z,43.12
2018-08-19T15:55:38.828Z,43.64
2018-08-19T15:58:12.176Z,43.61
2018-08-19T16:00:41.994Z,43.09
2018-08-19T16:03:12.012Z,43.50
2018-08-19T16:05:40.586Z,43.62
2018-08-19T16:08:09.415Z,44.70
2018-08-19T16:10:38.257Z,44.48
2018-08-19T16:13:09.961Z,43.54
2018-08-19T16:15:38.777Z,44.12
2018-08-19T16:18:08.113Z,44.65
2018-08-19T16:20:36.829Z,44.35
2018-08-19T16:23:06.323Z,43.79
2018-08-19T16:25:35.177Z,44.91
2018-08-19T16:28:04.186Z,44.95
2018-08-19T16:30:33.871Z,45.68
2018-08-19T16:33:02.470Z,45.67
2018-08-19T16:35:31.401Z,45.99
2018-08-19T16:38:00.409Z,46.50
2018-08-19T16:40:29.225Z,46.66
2018-08-19T16:42:58.044Z,47.94
2018-08-19T16:45:27.056Z,48.06
2018-08-19T16:47:56.012Z,47.40
2018-08-19T16:50:25.103Z,48.39
2018-08-19T16:52:54.100Z,47.65
2018-08-19T16:55:29.536Z,48.60
2018-08-19T16:57:58.238Z,48.98
2018-08-19T17:00:27.306Z,48.20
2018-08-19T17:02:56.380Z,48.94
2018-08-19T17:05:34.464Z,48.88
2018-08-19T17:08:03.687Z,48.99
2018-08-19T17:10:32.253Z,49.74
2018-08-19T17:13:00.828Z,49.19
2018-08-19T17:15:29.933Z,50.08
2018-08-19T17:17:59.257Z,49.43
2018-08-19T17:20:28.263Z,50.18
2018-08-19T17:22:57.109Z,49.73
2018-08-19T17:25:25.818Z,49.85
2018-08-19T17:27:54.512Z,50.99
2018-08-19T17:30:23.278Z,50.26
2018-08-19T17:33:02.458Z,50.21
2018-08-19T17:35:31.475Z,51.31
2018-08-19T17:38:07.805Z,50.80
2018-08-19T17:40:36.582Z,51.47
2018-08-19T17:43:05.349Z,51.95
2018-08-19T17:45:34.189Z,51.32
2018-08-19T17:48:03.314Z,52.06
2018-08-19T17:50:32.076Z,51.30
2018-08-19T17:53:02.726Z,52.12
2018-08-19T17:55:31.611Z,51.67
2018-08-19T17:58:00.811Z,52.70
2018-08-19T18:00:29.782Z,52.38
2018-08-19T18:02:58.639Z,52.95
2018-08-19T18:05:27.513Z,53.09
2018-08-19T18:07:56.687Z,52.08
2018-08-19T18:10:25.642Z,52.32
2018-08-19T18:12:54.385Z,53.22
2018-08-19T18:15:22.975Z,52.54
2018-08-19T18:17:58.071Z,53.20
2018-08-19T18:20:42.205Z,52.58
2018-08-19T18:23:28.798Z,53.21
2018-08-19T18:25:58.104Z,53.18
2018-08-19T18:28:29.247Z,53.29
2018-08-19T18:31:08.777Z,53.80
2018-08-19T18:33:49.501Z,54.23
2018-08-19T18:36:19.676Z,54.33
2018-08-19T18:38:48.476Z,54.89
2018-08-19T18:41:23.867Z,55.18
2018-08-19T18:43:54.915Z,54.68
2018-08-19T18:46:24.148Z,55.70
2018-08-19T18:49:00.217Z,55.98
2018-08-19T18:51:29.573Z,56.33
2018-08-19T18:53:58.342Z,55.37
2018-08-19T18:56:28.011Z,56.21
2018-08-19T18:58:56.663Z,56.70
2018-08-19T19:01:25.293Z,55.57
2018-08-19T19:03:54.103Z,56.06
2018-08-19T19:06:29.369Z,56.80
2018-08-19T19:08:58.690Z,57.55
2018-08-19T19:11:27.771Z,57.21
2018-08-19T19:13:57.895Z,57.38
2018-08-19T19:16:35.965Z,57.20
2018-08-19T19:19:11.280Z,57.97
2018-08-19T19:21:43.290Z,57.51
2018-08-19T19:24:12.195Z,57.62
2018-08-19T19:26:42.325Z,57.91
2018-08-19T19:29:20.623Z,57.71
2018-08-19T19:31:50.141Z,57.93
2018-08-19T19:34:18.819Z,58.91
2018-08-19T19:36:47.292Z,59.08
2018-08-19T19:39:18.564Z,59.36
2018-08-19T19:41:50.382Z,58.93
2018-08-19T19:44:28.079Z,58.15
2018-08-19T19:46:56.798Z,58.95
2018-08-19T19:49:25.618Z,59.54
2018-08-19T19:51:57.446Z,59.59
2018-08-19T19:54:26.774Z,59.97
2018-08-19T19:56:55.657Z,59.95
2018-08-19T19:59:26.264Z,59.74
2018-08-19T20:01:54.840Z,60.68
2018-08-19T20:04:23.274Z,60.74
2018-08-19T20:06:52.544Z,60.93
2018-08-19T20:09:21.230Z,60.39
2018-08-19T20:11:49.827Z,61.10
2018-08-19T20:14:18.369Z,61.15
2018-08-19T20:16:50.642Z,61.32
2018-08-19T20:19:20.971Z,62.06
2018-08-19T20:21:52.738Z,61.36
2018-08-19T20:24:24.422Z,62.51
2018-08-19T20:26:54.792Z,61.79
2018-08-19T20:29:25.235Z,62.58
2018-08-19T20:31:54.358Z,62.26
2018-08-19T20:34:24.454Z,62.52
2018-08-19T20:36:53.701Z,62.73
2018-08-19T20:39:24.732Z,63.04
2018-08-19T20:41:54.956Z,62.63
2018-08-19T20:44:29.740Z,62.79
2018-08-19T20:46:59.252Z,63.26
2018-08-19T20:49:33.713Z,63.52
2018-08-19T20:52:02.517Z,62.90
2018-08-19T20:54:31.985Z,63.13
2018-08-19T20:57:03.341Z,63.75
2018-08-19T20:59:36.955Z,64.17
2018-08-19T21:02:06.897Z,64.04
2018-08-19T21:04:35.719Z,64.43
2018-08-19T21:07:05.286Z,64.44
2018-08-19T21:09:35.895Z,63.95
2018-08-19T21:12:04.582Z,64.14
2018-08-19T21:14:37.592Z,63.85
2018-08-19T21:17:07.756Z,64.95
2018-08-19T21:19:37.051Z,64.12
2018-08-19T21:22:05.560Z,65.11
2018-08-19T21:24:34.805Z,64.34
2018-08-19T21:27:03.784Z,64.67
2018-08-19T21:29:32.782Z,64.40
2018-08-19T21:32:01.468Z,65.00
2018-08-19T21:34:30.577Z,65.29
2018-08-19T21:37:00.050Z,65.58
2018-08-19T21:39:28.853Z,64.85
2018-08-19T21:41:57.366Z,65.30
2018-08-19T21:44:26.034Z,64.82
2018-08-19T21:46:54.593Z,65.35
2018-08-19T21:49:23.221Z,64.80
2018-08-19T21:51:51.666Z,65.32
2018-08-19T21:54:20.525Z,64.74
2018-08-19T21:56:49.201Z,65.28
2018-08-19T21:59:24.971Z,65.06
2018-08-19T22:01:57.843Z,65.38
2018-08-19T22:04:27.000Z,65.01
2018-08-19T22:06:56.291Z,64.84
2018-08-19T22:09:33.846Z,65.25
2018-08-19T22:12:03.794Z,64.74
2018-08-19T22:14:33.012Z,65.43
2018-08-19T22:17:06.829Z,65.73
2018-08-19T22:19:35.329Z,65.38
2018-08-19T22:22:03.969Z,65.20
2018-08-19T22:24:38.913Z,65.19
2018-08-19T22:27:12.791Z,65.08
2018-08-19T22:29:41.494Z,65.82
2018-08-19T22:32:10.593Z,65.26
2018-08-19T22:34:39.097Z,64.85
2018-08-19T22:37:07.947Z,64.88
2018-08-19T22:39:36.547Z,65.96
2018-08-19T22:42:05.102Z,65.10
2018-08-19T22:44:33.740Z,65.00
2018-08-19T22:47:02.284Z,65.53
2018-08-19T22:49:31.084Z,64.98
2018-08-19T22:52:22.635Z,65.96
2018-08-19T22:54:53.020Z,65.67
2018-08-19T22:57:21.869Z,65.43
2018-08-19T22:59:50.693Z,65.54
2018-08-19T23:02:19.367Z,65.04
2018-08-19T23:04:48.040Z,65.77
2018-08-19T23:07:16.842Z,65.43
2018-08-19T23:09:51.887Z,65.35
2018-08-19T23:12:20.393Z,65.97
2018-08-19T23:15:00.198Z,65.86
2018-08-19T23:17:28.807Z,65.45
2018-08-19T23:19:57.357Z,66.42
2018-08-19T23:22:26.214Z,66.36
2018-08-19T23:24:54.707Z,66.82
2018-08-19T23:27:23.607Z,65.79
2018-08-19T23:29:52.180Z,66.00
2018-08-19T23:32:20.820Z,66.18
2018-08-19T23:34:49.580Z,65.80
2018-08-19T23:37:25.141Z,66.38
2018-08-19T23:39:53.821Z,66.65
2018-08-19T23:42:23.502Z,65.96
2018-08-19T23:44:52.072Z,66.45
2018-08-19T23:47:21.388Z,67.22
2018-08-19T23:49:50.036Z,67.51
2018-08-19T23:52:18.552Z,67.21
2018-08-19T23:54:47.135Z,67.22
2018-08-19T23:57:16.000Z,68.12
2018-08-19T23:59:46.713Z,68.56
